Time;durP1;ratioP1;P1;durP2;ratioP2;P2;SDS_P1;SDS_P2;PMS_P1;PMS_P2;Temp;Humidity;BMP_temperature;BMP_pressure;BME280_temperature;BME280_humidity;BME280_pressure;Samples;Min_cycle;Max_cycle;Signal;HPM_P1;HPM_P2
2023/02/23 00:01:46;;;;;;;49.30;20.90;;;;;;;;;;5072292;28;20021;-78
2023/02/23 00:04:11;;;;;;;58.47;21.88;;;;;;;;;;5073009;28;20477;-79
2023/02/23 00:06:36;;;;;;;51.30;20.25;;;;;;;;;;5073314;28;20061;-79
2023/02/23 00:09:07;;;;;;;59.30;22.20;;;;;;;;;;5073470;28;20008;-79
2023/02/23 00:11:32;;;;;;;57.97;23.17;;;;;;;;;;5073636;28;20019;-78
2023/02/23 00:14:00;;;;;;;59.10;23.35;;;;;;;;;;5073497;28;20008;-79
2023/02/23 00:16:25;;;;;;;51.50;21.02;;;;;;;;;;5072803;28;20094;-79
2023/02/23 00:18:52;;;;;;;61.08;22.75;;;;;;;;;;5061858;28;20039;-78
2023/02/23 00:21:17;;;;;;;61.15;22.15;;;;;;;;;;5095499;28;20033;-79
2023/02/23 00:23:53;;;;;;;58.78;22.30;;;;;;;;;;5073005;28;20013;-79
2023/02/23 00:26:25;;;;;;;61.20;23.17;;;;;;;;;;5072833;28;20047;-79
2023/02/23 00:28:52;;;;;;;61.78;24.25;;;;;;;;;;5073369;28;20016;-79
2023/02/23 00:31:22;;;;;;;76.88;25.80;;;;;;;;;;5088659;28;20032;-78
2023/02/23 00:33:50;;;;;;;66.40;25.50;;;;;;;;;;5070131;28;20032;-79
2023/02/23 00:36:15;;;;;;;58.00;24.25;;;;;;;;;;5072877;28;20038;-79
2023/02/23 00:38:40;;;;;;;73.07;26.08;;;;;;;;;;5088245;28;20115;-78
2023/02/23 00:41:07;;;;;;;68.60;28.33;;;;;;;;;;5083507;28;20345;-78
2023/02/23 00:43:33;;;;;;;61.47;24.65;;;;;;;;;;5072860;28;20016;-78
2023/02/23 00:45:58;;;;;;;69.90;26.13;;;;;;;;;;5062814;28;20081;-79
2023/02/23 00:48:23;;;;;;;67.25;24.35;;;;;;;;;;5083266;28;20032;-78
2023/02/23 00:50:56;;;;;;;64.03;25.15;;;;;;;;;;5072660;28;20030;-79
2023/02/23 00:53:22;;;;;;;65.53;24.25;;;;;;;;;;5072729;28;20028;-79
2023/02/23 00:55:47;;;;;;;64.85;23.63;;;;;;;;;;5087861;28;20021;-79
2023/02/23 00:58:12;;;;;;;60.97;24.75;;;;;;;;;;5072700;28;20048;-79
2023/02/23 01:00:41;;;;;;;69.78;26.02;;;;;;;;;;5088008;28;20116;-79
2023/02/23 01:03:06;;;;;;;57.50;24.00;;;;;;;;;;5073508;28;20499;-79
2023/02/23 01:05:33;;;;;;;60.45;23.13;;;;;;;;;;5071041;28;20059;-79
2023/02/23 01:07:58;;;;;;;63.05;23.73;;;;;;;;;;5072122;28;20017;-79
2023/02/23 01:10:23;;;;;;;58.50;23.00;;;;;;;;;;5072061;28;20031;-79
2023/02/23 01:12:50;;;;;;;68.40;24.45;;;;;;;;;;5071414;28;20020;-79
2023/02/23 01:15:15;;;;;;;61.45;24.52;;;;;;;;;;5070498;28;20056;-79
2023/02/23 01:17:41;;;;;;;64.78;24.73;;;;;;;;;;5068220;28;20059;-79
2023/02/23 01:20:14;;;;;;;66.60;26.27;;;;;;;;;;5057483;28;20132;-79
2023/02/23 01:22:41;;;;;;;67.82;24.75;;;;;;;;;;5090184;28;20032;-79
2023/02/23 01:25:06;;;;;;;69.88;25.00;;;;;;;;;;5076455;28;20391;-79
2023/02/23 01:27:32;;;;;;;58.25;23.05;;;;;;;;;;5070478;28;20025;-79
2023/02/23 01:29:57;;;;;;;71.07;25.17;;;;;;;;;;5071521;28;20021;-79
2023/02/23 01:32:23;;;;;;;72.38;25.45;;;;;;;;;;5063230;28;20551;-79
2023/02/23 01:34:48;;;;;;;62.13;24.95;;;;;;;;;;5055365;28;20032;-79
2023/02/23 01:37:13;;;;;;;67.13;25.08;;;;;;;;;;5055388;28;20021;-79
2023/02/23 01:39:38;;;;;;;64.60;24.77;;;;;;;;;;5084623;28;20020;-79
2023/02/23 01:42:05;;;;;;;64.05;25.60;;;;;;;;;;5060260;28;20024;-79
2023/02/23 01:44:30;;;;;;;66.20;26.33;;;;;;;;;;5067578;28;20020;-79
2023/02/23 01:46:57;;;;;;;63.78;25.70;;;;;;;;;;5076282;28;20520;-79
2023/02/23 01:49:27;;;;;;;66.93;25.50;;;;;;;;;;5069483;28;20016;-79
2023/02/23 01:52:01;;;;;;;65.38;24.95;;;;;;;;;;5075514;28;20294;-79
2023/02/23 01:54:29;;;;;;;66.22;24.17;;;;;;;;;;5071239;28;20417;-79
2023/02/23 01:56:56;;;;;;;60.08;23.70;;;;;;;;;;5071379;28;20464;-79
2023/02/23 01:59:27;;;;;;;65.88;25.80;;;;;;;;;;5070808;28;20472;-79
2023/02/23 02:01:53;;;;;;;62.83;23.95;;;;;;;;;;5086008;28;20048;-79
2023/02/23 02:04:19;;;;;;;60.00;24.23;;;;;;;;;;5067902;28;20169;-79
2023/02/23 02:06:45;;;;;;;67.15;26.00;;;;;;;;;;5067245;28;20416;-79
2023/02/23 02:09:16;;;;;;;58.22;23.05;;;;;;;;;;5061939;28;20054;-79
2023/02/23 02:11:43;;;;;;;61.90;24.20;;;;;;;;;;5071967;28;20013;-79
2023/02/23 02:14:13;;;;;;;62.35;24.20;;;;;;;;;;5075103;28;20020;-79
2023/02/23 02:16:38;;;;;;;66.60;25.48;;;;;;;;;;5071109;28;20459;-79
2023/02/23 02:19:09;;;;;;;59.45;23.95;;;;;;;;;;5084322;28;20027;-79
2023/02/23 02:21:40;;;;;;;57.30;22.92;;;;;;;;;;5070555;28;20097;-79
2023/02/23 02:24:07;;;;;;;67.00;25.15;;;;;;;;;;5071144;28;20585;-79
2023/02/23 02:26:44;;;;;;;70.22;25.02;;;;;;;;;;5085378;28;20024;-79
2023/02/23 02:29:33;;;;;;;69.45;24.88;;;;;;;;;;5056553;28;20017;-79
2023/02/23 02:32:17;;;;;;;68.93;25.23;;;;;;;;;;5084192;28;20016;-79
2023/02/23 02:35:02;;;;;;;59.78;23.80;;;;;;;;;;5068684;28;20340;-79
2023/02/23 02:37:36;;;;;;;61.70;22.65;;;;;;;;;;5069687;28;20017;-79
2023/02/23 02:40:16;;;;;;;66.50;25.50;;;;;;;;;;5078283;28;20033;-79
2023/02/23 02:42:42;;;;;;;65.07;24.98;;;;;;;;;;5071810;28;20114;-79
2023/02/23 02:45:22;;;;;;;65.35;25.55;;;;;;;;;;5063238;28;20522;-79
2023/02/23 02:48:05;;;;;;;63.03;23.83;;;;;;;;;;5069432;28;20021;-79
2023/02/23 02:50:49;;;;;;;58.72;23.98;;;;;;;;;;5086637;28;20032;-79
2023/02/23 02:53:19;;;;;;;63.83;24.85;;;;;;;;;;5059188;28;20097;-79
2023/02/23 02:55:47;;;;;;;57.28;24.08;;;;;;;;;;5078371;28;20475;-78
2023/02/23 02:58:12;;;;;;;61.80;24.08;;;;;;;;;;5089954;28;20028;-79
2023/02/23 04:18:49;;;;;;;47.33;17.70;;;;;;;;;;5073620;28;20028;-79
2023/02/23 04:21:14;;;;;;;55.08;18.13;;;;;;;;;;5072462;28;20108;-79
2023/02/23 04:23:40;;;;;;;50.00;17.65;;;;;;;;;;5088736;28;20023;-79
2023/02/23 04:26:06;;;;;;;43.92;16.80;;;;;;;;;;5059705;28;21432;-79
2023/02/23 04:28:31;;;;;;;54.50;19.02;;;;;;;;;;5070199;28;20019;-79
2023/02/23 04:30:56;;;;;;;49.05;18.20;;;;;;;;;;5072647;28;20020;-79
2023/02/23 04:33:22;;;;;;;47.55;17.17;;;;;;;;;;5072507;28;20112;-79
2023/02/23 04:35:48;;;;;;;52.40;19.10;;;;;;;;;;5095648;28;20020;-79
2023/02/23 04:38:13;;;;;;;48.15;17.17;;;;;;;;;;5078781;28;20028;-79
2023/02/23 04:40:38;;;;;;;51.63;17.25;;;;;;;;;;5086000;28;20086;-79
2023/02/23 04:43:03;;;;;;;51.90;18.90;;;;;;;;;;5061083;28;20688;-79
2023/02/23 04:45:29;;;;;;;53.22;17.60;;;;;;;;;;5062832;28;20023;-78
2023/02/23 04:47:55;;;;;;;53.03;17.30;;;;;;;;;;5088101;28;20158;-79
2023/02/23 04:50:20;;;;;;;45.38;16.67;;;;;;;;;;5070562;28;20020;-79
2023/02/23 04:52:45;;;;;;;45.72;17.35;;;;;;;;;;5072790;28;20321;-79
2023/02/23 04:55:15;;;;;;;44.90;16.90;;;;;;;;;;5090314;28;20024;-79
2023/02/23 04:57:40;;;;;;;43.70;15.50;;;;;;;;;;5075949;28;20028;-79
2023/02/23 05:00:06;;;;;;;42.53;14.23;;;;;;;;;;5071479;28;20077;-78
2023/02/23 05:02:31;;;;;;;41.67;14.15;;;;;;;;;;5072629;28;20062;-79
2023/02/23 05:04:56;;;;;;;45.40;16.05;;;;;;;;;;5072353;28;20012;-79
2023/02/23 05:07:21;;;;;;;43.20;14.70;;;;;;;;;;5072463;28;20475;-79
2023/02/23 05:09:46;;;;;;;43.15;15.15;;;;;;;;;;5071736;28;20028;-79
2023/02/23 05:12:12;;;;;;;52.33;15.65;;;;;;;;;;5087574;28;20047;-79
2023/02/23 05:14:37;;;;;;;40.75;15.18;;;;;;;;;;5071735;28;20496;-79
2023/02/23 05:17:02;;;;;;;49.83;15.43;;;;;;;;;;5068287;28;20055;-79
2023/02/23 05:19:28;;;;;;;46.53;15.97;;;;;;;;;;5071711;28;20021;-79
2023/02/23 05:21:53;;;;;;;46.80;15.52;;;;;;;;;;5097022;28;20059;-79
2023/02/23 05:24:18;;;;;;;46.70;15.70;;;;;;;;;;5087656;28;20017;-79
2023/02/23 05:26:44;;;;;;;50.45;15.95;;;;;;;;;;5072158;28;20104;-79
2023/02/23 05:29:09;;;;;;;44.92;14.45;;;;;;;;;;5086948;28;20021;-79
2023/02/23 05:31:35;;;;;;;47.45;15.70;;;;;;;;;;5087153;28;20396;-79
2023/02/23 05:34:00;;;;;;;49.33;15.98;;;;;;;;;;5066391;28;20021;-79
2023/02/23 05:36:25;;;;;;;39.28;14.88;;;;;;;;;;5080637;28;20551;-79
2023/02/23 05:38:50;;;;;;;44.25;16.08;;;;;;;;;;5070581;28;20098;-79
2023/02/23 05:41:17;;;;;;;39.83;16.05;;;;;;;;;;5063700;28;20025;-79
2023/02/23 05:43:42;;;;;;;46.58;16.95;;;;;;;;;;5065070;28;20021;-79
2023/02/23 05:46:08;;;;;;;47.33;16.80;;;;;;;;;;5071393;28;20020;-79
2023/02/23 05:48:33;;;;;;;50.92;16.70;;;;;;;;;;5071540;28;20384;-79
2023/02/23 05:51:03;;;;;;;50.38;17.35;;;;;;;;;;5063469;28;20047;-79
2023/02/23 05:53:28;;;;;;;53.97;16.88;;;;;;;;;;5071988;28;20020;-79
2023/02/23 05:55:53;;;;;;;49.80;17.92;;;;;;;;;;5089809;28;20058;-79
2023/02/23 05:58:18;;;;;;;45.45;16.30;;;;;;;;;;5071324;28;20123;-79
2023/02/23 06:00:43;;;;;;;50.17;18.27;;;;;;;;;;5086813;28;20112;-79
2023/02/23 06:03:08;;;;;;;49.42;16.65;;;;;;;;;;5075782;28;20109;-79
2023/02/23 06:05:34;;;;;;;46.80;16.63;;;;;;;;;;5071551;28;20458;-79
2023/02/23 06:07:59;;;;;;;52.75;18.55;;;;;;;;;;5070214;28;20021;-79
2023/02/23 06:10:24;;;;;;;45.28;16.45;;;;;;;;;;5071089;28;20032;-79
2023/02/23 06:12:49;;;;;;;51.25;18.58;;;;;;;;;;5072348;28;20073;-79
2023/02/23 06:15:15;;;;;;;47.33;16.27;;;;;;;;;;5081183;28;20039;-79
2023/02/23 06:17:40;;;;;;;57.55;17.77;;;;;;;;;;5078483;28;20020;-79
2023/02/23 06:20:06;;;;;;;53.28;16.75;;;;;;;;;;5071202;28;20572;-79
2023/02/23 06:22:31;;;;;;;51.42;16.77;;;;;;;;;;5086656;28;20021;-79
2023/02/23 06:24:56;;;;;;;48.88;16.25;;;;;;;;;;5068609;28;20147;-79
2023/02/23 06:27:21;;;;;;;51.70;17.95;;;;;;;;;;5069714;28;20029;-79
2023/02/23 06:29:46;;;;;;;47.70;16.38;;;;;;;;;;5070481;28;20437;-79
2023/02/23 06:32:12;;;;;;;53.65;18.50;;;;;;;;;;5086949;28;20017;-79
2023/02/23 06:34:37;;;;;;;61.78;18.85;;;;;;;;;;5077475;28;20405;-79
2023/02/23 06:37:02;;;;;;;54.50;17.63;;;;;;;;;;5071137;28;20023;-79
2023/02/23 06:39:28;;;;;;;50.72;16.67;;;;;;;;;;5077035;28;20538;-79
2023/02/23 06:41:53;;;;;;;53.40;17.30;;;;;;;;;;5073849;28;20108;-79
2023/02/23 06:44:18;;;;;;;48.42;18.55;;;;;;;;;;5084436;28;20025;-79
2023/02/23 06:46:43;;;;;;;48.17;17.45;;;;;;;;;;5077343;28;20450;-79
2023/02/23 06:49:10;;;;;;;54.65;17.67;;;;;;;;;;5083201;28;20056;-79
2023/02/23 06:51:35;;;;;;;60.50;19.20;;;;;;;;;;5070997;28;20024;-79
2023/02/23 06:54:00;;;;;;;49.35;18.42;;;;;;;;;;5071352;28;20434;-79
2023/02/23 06:56:26;;;;;;;47.72;17.75;;;;;;;;;;5069688;28;20029;-79
2023/02/23 06:58:51;;;;;;;45.67;17.73;;;;;;;;;;5082831;28;20027;-79
2023/02/23 07:01:17;;;;;;;53.85;17.58;;;;;;;;;;5075981;28;20034;-79
2023/02/23 07:03:42;;;;;;;52.92;17.95;;;;;;;;;;5093136;28;20095;-79
2023/02/23 07:06:08;;;;;;;58.35;17.92;;;;;;;;;;5080128;28;20586;-79
2023/02/23 07:08:33;;;;;;;59.53;19.17;;;;;;;;;;5077941;28;20024;-79
2023/02/23 07:11:09;;;;;;;55.25;18.25;;;;;;;;;;5090117;28;20044;-79
2023/02/23 07:13:35;;;;;;;55.72;19.80;;;;;;;;;;5067537;28;20032;-79
2023/02/23 07:16:00;;;;;;;55.60;19.27;;;;;;;;;;5074052;28;20047;-79
2023/02/23 07:18:25;;;;;;;54.47;18.90;;;;;;;;;;5073020;28;20107;-79
2023/02/23 07:20:50;;;;;;;54.88;19.00;;;;;;;;;;5067644;28;20459;-79
2023/02/23 07:23:16;;;;;;;51.55;18.27;;;;;;;;;;5075224;28;20020;-79
2023/02/23 07:25:41;;;;;;;59.42;18.45;;;;;;;;;;5076407;28;20020;-79
2023/02/23 07:28:06;;;;;;;55.47;20.10;;;;;;;;;;5078747;28;20024;-79
2023/02/23 07:30:31;;;;;;;58.30;18.98;;;;;;;;;;5071454;28;20021;-79
2023/02/23 07:32:56;;;;;;;64.70;20.95;;;;;;;;;;5063536;28;20048;-79
2023/02/23 07:35:22;;;;;;;52.53;19.77;;;;;;;;;;5064244;28;20017;-79
2023/02/23 07:37:47;;;;;;;63.15;19.13;;;;;;;;;;5079210;28;20028;-79
2023/02/23 07:40:12;;;;;;;65.68;20.90;;;;;;;;;;5069599;28;20074;-78
2023/02/23 07:42:38;;;;;;;64.85;20.75;;;;;;;;;;5082754;28;20358;-79
2023/02/23 07:45:03;;;;;;;61.13;20.30;;;;;;;;;;5063238;28;20017;-79
2023/02/23 07:47:33;;;;;;;61.00;20.88;;;;;;;;;;5070135;28;20032;-79
2023/02/23 07:49:59;;;;;;;63.38;22.42;;;;;;;;;;5068446;28;20023;-79
2023/02/23 07:52:24;;;;;;;62.10;20.95;;;;;;;;;;5076577;28;20115;-79
2023/02/23 07:54:49;;;;;;;58.65;20.08;;;;;;;;;;5073052;28;20600;-79
2023/02/23 07:57:15;;;;;;;72.97;21.40;;;;;;;;;;5072214;28;20391;-80
2023/02/23 07:59:40;;;;;;;62.75;21.08;;;;;;;;;;5079501;28;20439;-79
2023/02/23 08:02:05;;;;;;;60.42;21.40;;;;;;;;;;5076258;28;20101;-79
2023/02/23 08:04:31;;;;;;;62.83;21.75;;;;;;;;;;5070905;28;20021;-79
2023/02/23 08:06:56;;;;;;;68.97;22.35;;;;;;;;;;5064229;28;20143;-79
2023/02/23 08:09:21;;;;;;;68.75;22.23;;;;;;;;;;5066207;28;20024;-79
2023/02/23 08:11:46;;;;;;;64.82;22.80;;;;;;;;;;5068650;28;20021;-79
2023/02/23 08:14:11;;;;;;;58.75;19.58;;;;;;;;;;5061303;28;20103;-79
2023/02/23 08:16:37;;;;;;;64.70;22.40;;;;;;;;;;5078295;28;20093;-78
2023/02/23 08:19:02;;;;;;;58.92;20.80;;;;;;;;;;5055405;28;20043;-79
2023/02/23 08:21:28;;;;;;;67.53;21.67;;;;;;;;;;5081031;28;20357;-79
2023/02/23 08:23:54;;;;;;;70.93;23.27;;;;;;;;;;5071117;28;20070;-78
2023/02/23 08:26:19;;;;;;;70.30;21.95;;;;;;;;;;5088362;28;20111;-78
2023/02/23 08:28:45;;;;;;;62.25;20.67;;;;;;;;;;5072158;28;20013;-78
2023/02/23 08:31:15;;;;;;;65.93;21.25;;;;;;;;;;5062916;28;20975;-78
2023/02/23 08:33:40;;;;;;;59.38;20.73;;;;;;;;;;5077185;28;20166;-77
2023/02/23 08:36:06;;;;;;;62.10;21.48;;;;;;;;;;5072940;28;20024;-78
2023/02/23 08:38:31;;;;;;;64.40;20.50;;;;;;;;;;5072946;28;20028;-78
2023/02/23 08:41:00;;;;;;;64.43;21.00;;;;;;;;;;5067578;28;20025;-78
2023/02/23 08:43:25;;;;;;;68.80;22.13;;;;;;;;;;5071034;28;20023;-78
2023/02/23 08:45:51;;;;;;;62.08;19.95;;;;;;;;;;5062600;28;20004;-79
2023/02/23 08:48:16;;;;;;;63.38;21.58;;;;;;;;;;5066891;28;20487;-78
2023/02/23 08:50:41;;;;;;;64.45;21.23;;;;;;;;;;5072389;28;20054;-79
2023/02/23 08:53:07;;;;;;;61.83;20.52;;;;;;;;;;5075622;28;20028;-78
2023/02/23 08:55:34;;;;;;;66.35;21.17;;;;;;;;;;5072322;28;20032;-79
2023/02/23 08:57:59;;;;;;;63.67;20.33;;;;;;;;;;5087635;28;20027;-79
2023/02/23 09:00:24;;;;;;;65.55;18.45;;;;;;;;;;5068702;28;20468;-79
2023/02/23 09:02:49;;;;;;;62.88;19.33;;;;;;;;;;5077287;28;20016;-79
2023/02/23 09:05:15;;;;;;;57.00;19.13;;;;;;;;;;5071047;28;20028;-79
2023/02/23 09:07:43;;;;;;;59.60;18.23;;;;;;;;;;5072314;28;20058;-79
2023/02/23 09:10:10;;;;;;;60.28;19.42;;;;;;;;;;5071735;28;20025;-79
2023/02/23 09:12:35;;;;;;;53.88;19.05;;;;;;;;;;5066361;28;20479;-79
2023/02/23 09:15:01;;;;;;;56.10;19.65;;;;;;;;;;5071437;28;20074;-79
2023/02/23 09:17:26;;;;;;;57.05;19.75;;;;;;;;;;5072436;28;20013;-79
2023/02/23 09:19:51;;;;;;;61.75;19.40;;;;;;;;;;5070139;28;20053;-79
2023/02/23 09:22:20;;;;;;;57.17;18.60;;;;;;;;;;5070002;28;20029;-79
2023/02/23 09:24:45;;;;;;;53.65;18.88;;;;;;;;;;5058521;28;20016;-78
2023/02/23 09:27:13;;;;;;;51.80;16.90;;;;;;;;;;5080294;28;20081;-78
2023/02/23 09:29:41;;;;;;;54.30;18.08;;;;;;;;;;5066770;28;20028;-78
2023/02/23 09:32:06;;;;;;;44.70;16.42;;;;;;;;;;5062199;28;20101;-79
2023/02/23 09:34:31;;;;;;;51.10;16.88;;;;;;;;;;5065862;28;20537;-79
2023/02/23 09:36:57;;;;;;;48.42;16.52;;;;;;;;;;5068307;28;20456;-80
2023/02/23 09:39:22;;;;;;;45.15;14.93;;;;;;;;;;5067595;28;20067;-79
2023/02/23 09:41:50;;;;;;;55.03;16.80;;;;;;;;;;5064851;28;20028;-80
2023/02/23 09:44:35;;;;;;;48.65;16.92;;;;;;;;;;5067331;28;20406;-80
2023/02/23 09:47:19;;;;;;;46.40;15.52;;;;;;;;;;5066574;28;20032;-80
2023/02/23 09:49:46;;;;;;;49.45;16.30;;;;;;;;;;5063259;28;20016;-80
2023/02/23 09:52:16;;;;;;;50.85;17.25;;;;;;;;;;5090509;28;20513;-80
2023/02/23 09:54:42;;;;;;;54.83;17.40;;;;;;;;;;5072348;28;20028;-80
2023/02/23 09:57:13;;;;;;;51.10;17.02;;;;;;;;;;5072747;28;20028;-80
2023/02/23 09:59:38;;;;;;;54.08;17.67;;;;;;;;;;5070642;28;20138;-80
2023/02/23 10:02:18;;;;;;;54.25;18.42;;;;;;;;;;5088380;28;20084;-80
2023/02/23 10:04:43;;;;;;;63.75;19.52;;;;;;;;;;5084359;28;20444;-80
2023/02/23 10:07:20;;;;;;;61.95;21.02;;;;;;;;;;5080128;28;20032;-81
2023/02/23 10:09:57;;;;;;;61.35;20.23;;;;;;;;;;5070996;28;20026;-78
2023/02/23 10:12:48;;;;;;;71.10;21.02;;;;;;;;;;5072520;28;20044;-77
2023/02/23 10:15:26;;;;;;;63.80;18.67;;;;;;;;;;5071145;28;20539;-78
2023/02/23 10:18:07;;;;;;;56.60;17.85;;;;;;;;;;5072146;28;20020;-78
2023/02/23 10:20:51;;;;;;;63.85;20.63;;;;;;;;;;5055416;28;20082;-78
2023/02/23 10:23:20;;;;;;;59.03;18.58;;;;;;;;;;5071554;28;20035;-79
2023/02/23 10:25:47;;;;;;;60.25;18.02;;;;;;;;;;5076435;28;20070;-77
2023/02/23 10:28:17;;;;;;;60.30;17.90;;;;;;;;;;5086772;28;20115;-77
2023/02/23 10:30:42;;;;;;;67.18;19.15;;;;;;;;;;5081210;28;20025;-77
2023/02/23 10:33:10;;;;;;;55.17;17.85;;;;;;;;;;5066365;28;20032;-77
2023/02/23 10:35:37;;;;;;;57.95;19.65;;;;;;;;;;5067523;28;20036;-77
2023/02/23 10:38:02;;;;;;;68.97;19.67;;;;;;;;;;5072862;28;20019;-87
2023/02/23 10:40:31;;;;;;;62.78;19.23;;;;;;;;;;5082551;28;20020;-87
2023/02/23 10:42:57;;;;;;;61.97;17.73;;;;;;;;;;5077893;28;20387;-88
2023/02/23 10:45:23;;;;;;;69.45;19.42;;;;;;;;;;5067004;28;20024;-88
2023/02/23 10:48:04;;;;;;;60.70;18.17;;;;;;;;;;5074490;28;20097;-89
2023/02/23 10:50:29;;;;;;;61.80;19.02;;;;;;;;;;5096011;28;20043;-90
2023/02/23 10:52:59;;;;;;;60.17;20.25;;;;;;;;;;5100842;28;20028;-89
2023/02/23 10:55:26;;;;;;;59.67;18.13;;;;;;;;;;5084168;28;20112;-84
2023/02/23 10:58:16;;;;;;;45.20;15.30;;;;;;;;;;5075269;28;20089;-84
2023/02/23 11:00:56;;;;;;;56.72;18.45;;;;;;;;;;5071313;28;20040;-85
2023/02/23 11:03:23;;;;;;;57.10;17.73;;;;;;;;;;5062631;28;20031;-84
2023/02/23 11:05:52;;;;;;;55.42;17.90;;;;;;;;;;5074707;28;20025;-84
2023/02/23 11:08:21;;;;;;;53.05;18.15;;;;;;;;;;5084241;28;20112;-84
2023/02/23 11:11:00;;;;;;;55.28;18.92;;;;;;;;;;5074609;28;20028;-84
2023/02/23 11:13:27;;;;;;;51.60;18.63;;;;;;;;;;5076728;28;20417;-84
2023/02/23 11:16:00;;;;;;;59.72;19.23;;;;;;;;;;5071603;28;20056;-84
2023/02/23 11:18:26;;;;;;;57.60;19.35;;;;;;;;;;5064700;28;20529;-84
2023/02/23 11:20:51;;;;;;;51.55;18.75;;;;;;;;;;5089885;28;20036;-84
2023/02/23 11:23:29;;;;;;;58.05;20.20;;;;;;;;;;5062327;28;20029;-84
2023/02/23 11:25:58;;;;;;;51.72;17.60;;;;;;;;;;5089877;28;20029;-85
2023/02/23 11:28:29;;;;;;;53.00;17.50;;;;;;;;;;5074421;28;20012;-84
2023/02/23 11:30:55;;;;;;;56.97;18.60;;;;;;;;;;5089843;28;20056;-85
2023/02/23 11:33:24;;;;;;;55.00;17.63;;;;;;;;;;5073141;28;20502;-84
2023/02/23 11:35:56;;;;;;;48.50;16.63;;;;;;;;;;5089526;28;20100;-85
2023/02/23 11:38:22;;;;;;;51.55;16.48;;;;;;;;;;5090154;28;20017;-85
2023/02/23 11:41:04;;;;;;;51.15;17.15;;;;;;;;;;5076822;28;20025;-84
2023/02/23 11:43:30;;;;;;;52.33;17.17;;;;;;;;;;5066325;28;20013;-84
2023/02/23 11:45:57;;;;;;;56.85;17.90;;;;;;;;;;5079820;28;20078;-84
2023/02/23 11:48:33;;;;;;;55.28;20.45;;;;;;;;;;5089067;28;20025;-84
2023/02/23 11:50:59;;;;;;;52.85;18.63;;;;;;;;;;5089393;28;20012;-84
2023/02/23 11:53:33;;;;;;;57.13;18.85;;;;;;;;;;5089600;28;20058;-84
2023/02/23 11:56:01;;;;;;;57.45;18.77;;;;;;;;;;5071026;28;20074;-84
2023/02/23 11:58:34;;;;;;;57.05;19.15;;;;;;;;;;5080420;28;20020;-84
2023/02/23 12:01:01;;;;;;;62.97;22.67;;;;;;;;;;5085198;28;20021;-84
2023/02/23 12:03:28;;;;;;;55.05;18.88;;;;;;;;;;5089895;28;20055;-84
2023/02/23 12:05:56;;;;;;;53.63;18.80;;;;;;;;;;5089300;28;20099;-84
2023/02/23 12:08:37;;;;;;;53.55;18.95;;;;;;;;;;5089585;28;20431;-84
2023/02/23 12:11:05;;;;;;;56.60;18.27;;;;;;;;;;5086150;28;20021;-84
2023/02/23 12:13:33;;;;;;;50.97;18.60;;;;;;;;;;5073576;28;20028;-84
2023/02/23 12:16:01;;;;;;;53.75;17.98;;;;;;;;;;5089359;28;20020;-84
2023/02/23 12:18:42;;;;;;;63.00;20.58;;;;;;;;;;5089241;28;20034;-84
2023/02/23 12:21:27;;;;;;;56.45;19.02;;;;;;;;;;5088728;28;20025;-84
2023/02/23 12:24:04;;;;;;;57.00;19.95;;;;;;;;;;5072154;28;20021;-84
2023/02/23 12:26:30;;;;;;;61.05;20.48;;;;;;;;;;5072574;28;20013;-85
2023/02/23 12:29:03;;;;;;;56.00;20.23;;;;;;;;;;5088578;28;20380;-85
2023/02/23 12:31:51;;;;;;;57.75;21.13;;;;;;;;;;5088843;28;20127;-84
2023/02/23 12:34:16;;;;;;;60.67;21.52;;;;;;;;;;5088407;28;20024;-84
2023/02/23 12:36:41;;;;;;;60.60;21.20;;;;;;;;;;5073507;28;20488;-84
2023/02/23 12:39:29;;;;;;;60.08;20.80;;;;;;;;;;5088644;28;20031;-84
2023/02/23 12:42:00;;;;;;;56.50;20.83;;;;;;;;;;5060529;28;20489;-84
2023/02/23 12:44:43;;;;;;;61.88;20.13;;;;;;;;;;5084473;28;20017;-85
2023/02/23 12:47:31;;;;;;;62.33;21.65;;;;;;;;;;5066010;28;20020;-84
2023/02/23 12:50:19;;;;;;;58.63;20.35;;;;;;;;;;5087896;28;20012;-85
2023/02/23 12:52:49;;;;;;;62.25;22.63;;;;;;;;;;5071045;28;20113;-84
2023/02/23 12:55:20;;;;;;;59.05;22.40;;;;;;;;;;5088436;28;20024;-84
2023/02/23 12:57:55;;;;;;;62.53;21.40;;;;;;;;;;5088478;28;20591;-84
2023/02/23 13:00:29;;;;;;;64.53;21.10;;;;;;;;;;5083670;28;20074;-84
2023/02/23 13:03:23;;;;;;;65.40;20.92;;;;;;;;;;5084904;28;20024;-85
2023/02/23 13:05:48;;;;;;;59.65;22.20;;;;;;;;;;5071172;28;20108;-84
2023/02/23 13:08:32;;;;;;;63.00;21.20;;;;;;;;;;5076198;28;20154;-84
2023/02/23 13:11:15;;;;;;;58.08;20.98;;;;;;;;;;5087516;28;20021;-85
2023/02/23 13:13:51;;;;;;;55.88;21.27;;;;;;;;;;5084921;28;20069;-84
2023/02/23 13:16:29;;;;;;;57.88;19.90;;;;;;;;;;5092511;28;20120;-84
2023/02/23 13:18:54;;;;;;;56.15;21.50;;;;;;;;;;5082313;28;20510;-84
2023/02/23 13:21:29;;;;;;;60.65;21.15;;;;;;;;;;5070882;28;20048;-84
2023/02/23 13:24:03;;;;;;;49.60;17.50;;;;;;;;;;5075193;28;20031;-84
2023/02/23 13:26:40;;;;;;;66.28;22.65;;;;;;;;;;5087527;28;20028;-85
2023/02/23 13:29:08;;;;;;;49.83;17.77;;;;;;;;;;5072139;28;20079;-84
2023/02/23 13:31:35;;;;;;;62.90;21.88;;;;;;;;;;5087878;28;20074;-84
2023/02/23 13:34:01;;;;;;;48.83;18.75;;;;;;;;;;5087752;28;20028;-85
2023/02/23 13:36:28;;;;;;;48.30;18.95;;;;;;;;;;5087398;28;20017;-85
2023/02/23 13:39:15;;;;;;;53.20;19.52;;;;;;;;;;5086041;28;20021;-84
2023/02/23 13:41:45;;;;;;;48.03;16.90;;;;;;;;;;5076423;28;20032;-85
2023/02/23 13:44:29;;;;;;;44.75;16.67;;;;;;;;;;5067838;28;20047;-84
2023/02/23 13:47:09;;;;;;;50.35;18.00;;;;;;;;;;5079269;28;20486;-85
2023/02/23 13:49:44;;;;;;;46.33;17.05;;;;;;;;;;5057856;28;20062;-85
2023/02/23 13:52:18;;;;;;;50.08;17.92;;;;;;;;;;5072204;28;20051;-85
2023/02/23 13:54:51;;;;;;;42.50;15.95;;;;;;;;;;5073717;28;20066;-85
2023/02/23 13:57:16;;;;;;;;;;;;;;;;;;5087646;28;20111;-84
2023/02/23 13:59:44;;;;;;;40.20;15.48;;;;;;;;;;5070177;28;20383;-84
2023/02/23 14:02:36;;;;;;;42.35;15.13;;;;;;;;;;5072332;28;20035;-85
2023/02/23 14:05:02;;;;;;;43.67;16.10;;;;;;;;;;5053736;28;20029;-84
2023/02/23 14:07:29;;;;;;;44.33;16.02;;;;;;;;;;5069287;28;20013;-85
2023/02/23 14:09:57;;;;;;;43.30;16.42;;;;;;;;;;5086194;28;20408;-84
2023/02/23 14:12:23;;;;;;;40.80;15.05;;;;;;;;;;5063339;28;20467;-84
2023/02/23 14:14:48;;;;;;;44.28;16.35;;;;;;;;;;5071527;28;20372;-84
2023/02/23 14:17:14;;;;;;;41.45;15.98;;;;;;;;;;5074638;28;20024;-84
2023/02/23 14:19:42;;;;;;;44.22;16.48;;;;;;;;;;5078055;28;20021;-84
2023/02/23 14:22:11;;;;;;;43.85;15.60;;;;;;;;;;5076822;28;20204;-82
2023/02/23 14:24:36;;;;;;;50.15;15.40;;;;;;;;;;5074902;28;20021;-83
2023/02/23 14:27:10;;;;;;;47.17;15.07;;;;;;;;;;5073347;28;20024;-81
2023/02/23 14:29:39;;;;;;;42.05;15.57;;;;;;;;;;5080955;28;20094;-81
2023/02/23 14:32:10;;;;;;;40.72;15.57;;;;;;;;;;5091362;28;20115;-81
2023/02/23 14:35:08;;;;;;;36.50;13.32;;;;;;;;;;5082206;28;20028;-81
2023/02/23 14:37:33;;;;;;;33.25;12.55;;;;;;;;;;5048274;28;20041;-81
2023/02/23 14:40:04;;;;;;;26.58;11.07;;;;;;;;;;5086691;28;20394;-81
2023/02/23 14:42:30;;;;;;;29.55;11.18;;;;;;;;;;5097043;28;20035;-81
2023/02/23 14:44:56;;;;;;;30.52;11.90;;;;;;;;;;5062822;28;20111;-80
2023/02/23 14:47:24;;;;;;;30.02;10.07;;;;;;;;;;5082792;28;20447;-80
2023/02/23 14:49:53;;;;;;;26.10;10.07;;;;;;;;;;5068145;28;20028;-80
2023/02/23 14:52:19;;;;;;;26.38;10.88;;;;;;;;;;5052600;28;20103;-80
2023/02/23 14:54:44;;;;;;;27.23;10.70;;;;;;;;;;5067771;28;20410;-81
2023/02/23 14:57:23;;;;;;;25.67;10.65;;;;;;;;;;5069994;28;20683;-80
2023/02/23 14:59:55;;;;;;;25.00;10.10;;;;;;;;;;5066446;28;20021;-81
2023/02/23 15:02:21;;;;;;;28.20;10.98;;;;;;;;;;5080221;28;20494;-81
2023/02/23 15:04:46;;;;;;;21.38;9.07;;;;;;;;;;5085773;28;20025;-81
2023/02/23 15:07:17;;;;;;;24.73;10.70;;;;;;;;;;5072420;28;20095;-81
2023/02/23 15:09:43;;;;;;;24.10;9.80;;;;;;;;;;5071240;28;20021;-81
2023/02/23 15:12:19;;;;;;;24.20;10.13;;;;;;;;;;5069477;28;20081;-80
2023/02/23 15:14:47;;;;;;;20.88;8.75;;;;;;;;;;5068448;28;20032;-80
2023/02/23 15:17:15;;;;;;;24.90;9.52;;;;;;;;;;5070782;28;20038;-80
2023/02/23 15:19:40;;;;;;;21.15;9.25;;;;;;;;;;5069921;28;20115;-80
2023/02/23 15:22:05;;;;;;;19.05;8.00;;;;;;;;;;5070776;28;20127;-80
2023/02/23 15:24:38;;;;;;;21.00;7.90;;;;;;;;;;5073461;28;20103;-80
2023/02/23 15:27:05;;;;;;;17.50;7.43;;;;;;;;;;5074826;28;20452;-81
2023/02/23 15:29:31;;;;;;;19.60;7.60;;;;;;;;;;5074394;28;20024;-80
2023/02/23 15:32:09;;;;;;;19.13;7.85;;;;;;;;;;5071987;28;20020;-80
2023/02/23 15:34:35;;;;;;;17.42;7.30;;;;;;;;;;5072915;28;20391;-80
2023/02/23 15:37:06;;;;;;;14.95;6.80;;;;;;;;;;5074568;28;20024;-80
2023/02/23 15:39:38;;;;;;;14.43;5.82;;;;;;;;;;5074264;28;20054;-80
2023/02/23 15:42:05;;;;;;;14.13;5.75;;;;;;;;;;5060023;28;20029;-81
2023/02/23 15:44:31;;;;;;;14.68;6.05;;;;;;;;;;5070737;28;20484;-81
2023/02/23 15:47:00;;;;;;;13.07;6.03;;;;;;;;;;5062507;28;20025;-81